createdAt,value
2019-02-09T00:01:35.712Z,4.23
2019-02-09T00:04:04.933Z,5.50
2019-02-09T00:06:33.382Z,4.07
2019-02-09T00:09:02.000Z,6.07
2019-02-09T00:11:30.511Z,7.03
2019-02-09T00:13:59.072Z,5.20
2019-02-09T00:16:27.914Z,5.00
2019-02-09T00:18:56.537Z,4.97
2019-02-09T00:21:25.062Z,6.27
2019-02-09T00:23:53.667Z,5.43
2019-02-09T00:26:22.449Z,4.50
2019-02-09T00:28:51.075Z,4.67
2019-02-09T00:31:19.634Z,6.17
2019-02-09T00:33:48.244Z,6.50
2019-02-09T00:36:16.803Z,4.00
2019-02-09T00:38:45.635Z,4.57
2019-02-09T00:41:14.526Z,2.10
2019-02-09T00:43:43.103Z,4.27
2019-02-09T00:46:12.008Z,4.87
2019-02-09T00:48:40.668Z,4.57
2019-02-09T00:51:09.435Z,3.83
2019-02-09T00:53:38.074Z,5.17
2019-02-09T00:56:06.758Z,5.27
2019-02-09T00:58:35.377Z,5.07
2019-02-09T01:01:04.032Z,3.37
2019-02-09T01:03:32.692Z,9.27
2019-02-09T01:06:01.501Z,3.37
2019-02-09T01:08:35.306Z,4.67
2019-02-09T01:11:05.645Z,3.47
2019-02-09T01:13:34.378Z,7.90
2019-02-09T01:16:03.128Z,4.00
2019-02-09T01:18:31.670Z,5.83
2019-02-09T01:21:00.655Z,5.20
2019-02-09T01:23:29.567Z,4.63
2019-02-09T01:25:58.337Z,5.27
2019-02-09T01:28:27.236Z,4.47
2019-02-09T01:30:55.683Z,6.73
2019-02-09T01:33:24.653Z,3.00
2019-02-09T01:35:53.275Z,3.63
2019-02-09T01:38:21.928Z,3.50
2019-02-09T01:40:51.392Z,3.43
2019-02-09T01:43:20.611Z,3.93
2019-02-09T01:45:49.121Z,3.70
2019-02-09T01:48:18.647Z,4.10
2019-02-09T01:50:47.437Z,5.47
2019-02-09T01:53:16.690Z,3.27
2019-02-09T01:55:45.365Z,5.37
2019-02-09T01:58:14.250Z,3.57
2019-02-09T02:00:42.923Z,4.07
2019-02-09T02:03:11.583Z,3.30
2019-02-09T02:05:40.298Z,4.70
2019-02-09T02:08:09.357Z,4.27
2019-02-09T02:10:39.267Z,6.33
2019-02-09T02:13:09.474Z,5.63
2019-02-09T02:15:40.440Z,4.17
2019-02-09T02:18:09.726Z,2.97
2019-02-09T02:20:38.401Z,5.73
2019-02-09T02:23:07.195Z,2.77
2019-02-09T02:25:36.126Z,3.87
2019-02-09T02:28:04.794Z,4.20
2019-02-09T02:30:35.714Z,4.00
2019-02-09T02:33:05.745Z,4.30
2019-02-09T02:35:34.686Z,6.10
2019-02-09T02:38:03.600Z,4.50
2019-02-09T02:40:32.509Z,3.37
2019-02-09T02:43:01.096Z,3.33
2019-02-09T02:45:29.801Z,4.47
2019-02-09T02:47:59.163Z,3.87
2019-02-09T02:50:28.198Z,1.47
2019-02-09T02:52:56.734Z,4.43
2019-02-09T02:55:26.920Z,4.40
2019-02-09T02:57:55.601Z,5.37
2019-02-09T03:00:32.562Z,4.83
2019-02-09T03:03:00.113Z,3.50
2019-02-09T03:05:29.029Z,4.13
2019-02-09T03:07:57.687Z,3.20
2019-02-09T03:10:26.300Z,5.57
2019-02-09T03:12:54.765Z,3.93
2019-02-09T03:15:26.729Z,4.03
2019-02-09T03:17:55.535Z,5.47
2019-02-09T03:20:24.175Z,5.03
2019-02-09T03:22:52.941Z,3.57
2019-02-09T03:25:27.504Z,2.23
2019-02-09T03:27:56.747Z,3.87
2019-02-09T03:30:25.549Z,4.50
2019-02-09T03:32:54.292Z,3.80
2019-02-09T03:35:23.312Z,4.57
2019-02-09T03:37:52.059Z,5.80
2019-02-09T03:40:22.371Z,2.30
2019-02-09T03:42:51.019Z,3.83
2019-02-09T03:45:25.815Z,4.03
2019-02-09T03:47:54.821Z,2.40
2019-02-09T03:50:25.942Z,2.93
2019-02-09T03:52:54.491Z,3.60
2019-02-09T03:55:23.909Z,4.13
2019-02-09T03:57:52.344Z,5.50
2019-02-09T04:00:23.866Z,3.07
2019-02-09T04:02:52.614Z,3.33
2019-02-09T04:05:21.550Z,3.93
2019-02-09T04:07:50.233Z,4.57
2019-02-09T04:10:21.466Z,2.30
2019-02-09T04:12:50.344Z,2.43
2019-02-09T04:15:21.199Z,5.37
2019-02-09T04:17:49.888Z,2.93
2019-02-09T04:20:19.982Z,6.37
2019-02-09T04:22:48.820Z,3.37
2019-02-09T04:25:18.694Z,2.80
2019-02-09T04:27:47.552Z,2.63
2019-02-09T04:30:23.028Z,4.77
2019-02-09T04:32:51.426Z,2.80
2019-02-09T04:35:20.138Z,4.70
2019-02-09T04:37:48.973Z,5.13
2019-02-09T04:40:26.936Z,2.80
2019-02-09T04:42:55.598Z,6.10
2019-02-09T04:45:24.757Z,4.80
2019-02-09T04:47:53.387Z,5.43
2019-02-09T04:50:23.400Z,3.40
2019-02-09T04:52:52.673Z,4.47
2019-02-09T04:55:23.670Z,5.90
2019-02-09T04:57:52.412Z,4.17
2019-02-09T05:00:24.636Z,6.17
2019-02-09T05:02:53.112Z,4.53
2019-02-09T05:05:21.929Z,4.07
2019-02-09T05:07:50.878Z,5.40
2019-02-09T05:10:20.415Z,8.03
2019-02-09T05:12:49.328Z,6.73
2019-02-09T05:15:18.904Z,4.40
2019-02-09T05:17:47.873Z,5.63
2019-02-09T05:20:19.436Z,5.80
2019-02-09T05:22:48.610Z,10.13
2019-02-09T05:25:17.660Z,8.73
2019-02-09T05:27:47.009Z,6.93
2019-02-09T05:30:24.323Z,7.90
2019-02-09T05:32:53.361Z,9.50
2019-02-09T05:35:22.332Z,7.80
2019-02-09T05:37:50.879Z,8.47
2019-02-09T05:40:20.676Z,7.30
2019-02-09T05:42:49.341Z,7.67
2019-02-09T05:45:26.584Z,9.50
2019-02-09T05:47:55.368Z,7.73
2019-02-09T05:50:23.965Z,7.37
2019-02-09T05:52:52.550Z,8.57
2019-02-09T05:55:21.860Z,7.13
2019-02-09T05:57:50.432Z,6.50
2019-02-09T06:00:27.110Z,7.77
2019-02-09T06:02:56.123Z,9.10
2019-02-09T06:05:24.655Z,11.30
2019-02-09T06:07:53.032Z,6.30
2019-02-09T06:10:21.973Z,7.57
2019-02-09T06:12:50.433Z,7.47
2019-02-09T06:15:19.230Z,7.27
2019-02-09T06:17:47.837Z,8.97
2019-02-09T06:20:22.857Z,5.03
2019-02-09T06:22:52.273Z,6.20
2019-02-09T06:25:21.363Z,6.47
2019-02-09T06:27:50.213Z,8.17
2019-02-09T06:30:22.279Z,10.33
2019-02-09T06:32:50.955Z,5.77
2019-02-09T06:35:19.985Z,5.20
2019-02-09T06:37:48.467Z,4.90
2019-02-09T06:40:17.887Z,6.47
2019-02-09T06:42:46.756Z,4.27
2019-02-09T06:45:18.142Z,4.20
2019-02-09T06:47:46.832Z,6.03
2019-02-09T06:50:19.259Z,5.67
2019-02-09T06:52:48.117Z,7.73
2019-02-09T06:55:16.770Z,9.27
2019-02-09T06:57:45.132Z,5.40
2019-02-09T07:00:16.854Z,4.27
2019-02-09T07:02:45.404Z,2.77
2019-02-09T07:05:17.290Z,4.63
2019-02-09T07:07:46.700Z,4.33
2019-02-09T07:10:18.740Z,6.73
2019-02-09T07:12:47.527Z,3.97
2019-02-09T07:15:21.600Z,5.50
2019-02-09T07:17:50.375Z,4.60
2019-02-09T07:20:19.341Z,3.97
2019-02-09T07:22:48.137Z,4.30
2019-02-09T07:25:17.136Z,4.30
2019-02-09T07:27:45.849Z,6.07
2019-02-09T07:30:19.089Z,5.77
2019-02-09T07:32:47.816Z,4.17
2019-02-09T07:35:16.355Z,5.63
2019-02-09T07:37:45.082Z,6.77
2019-02-09T07:40:14.941Z,5.20
2019-02-09T07:42:43.931Z,6.07
2019-02-09T07:45:16.162Z,7.07
2019-02-09T07:47:44.787Z,8.60
2019-02-09T07:50:15.698Z,6.23
2019-02-09T07:52:44.313Z,4.40
2019-02-09T07:55:14.857Z,7.30
2019-02-09T07:57:44.387Z,7.93
2019-02-09T08:00:22.215Z,7.80
2019-02-09T08:02:52.409Z,9.03
2019-02-09T08:05:23.570Z,6.30
2019-02-09T08:07:52.449Z,8.67
2019-02-09T08:10:24.113Z,6.60
2019-02-09T08:12:52.702Z,5.93
2019-02-09T08:15:23.992Z,7.73
2019-02-09T08:17:53.802Z,5.13
2019-02-09T08:20:24.826Z,7.10
2019-02-09T08:22:55.133Z,6.47
2019-02-09T08:25:26.053Z,6.97
2019-02-09T08:27:55.155Z,8.27
2019-02-09T08:30:30.511Z,9.40
2019-02-09T08:32:59.532Z,5.83
2019-02-09T08:35:28.522Z,8.73
2019-02-09T08:37:57.302Z,10.50
2019-02-09T08:40:26.549Z,12.50
2019-02-09T08:42:55.367Z,4.80
2019-02-09T08:45:24.807Z,5.23
2019-02-09T08:47:54.127Z,7.43
2019-02-09T08:50:32.480Z,8.07
2019-02-09T08:53:01.047Z,8.53
2019-02-09T08:55:29.657Z,7.37
2019-02-09T08:57:58.882Z,6.80
2019-02-09T09:00:30.311Z,9.23
2019-02-09T09:02:58.946Z,9.27
2019-02-09T09:05:27.820Z,12.20
2019-02-09T09:07:56.995Z,8.30
2019-02-09T09:10:27.221Z,9.90
2019-02-09T09:12:56.444Z,7.87
2019-02-09T09:15:32.131Z,7.20
2019-02-09T09:18:00.877Z,8.73
2019-02-09T09:20:32.607Z,3.33
2019-02-09T09:23:01.477Z,7.20
2019-02-09T09:25:30.127Z,12.17
2019-02-09T09:27:58.671Z,9.83
2019-02-09T09:30:28.207Z,9.93
2019-02-09T09:32:57.260Z,5.73
2019-02-09T09:35:26.091Z,9.70
2019-02-09T09:37:55.186Z,7.27
2019-02-09T09:40:27.414Z,9.63
2019-02-09T09:42:56.673Z,11.70
2019-02-09T09:45:31.013Z,9.87
2019-02-09T09:48:00.232Z,8.27
2019-02-09T09:50:29.464Z,12.63
2019-02-09T09:52:58.360Z,8.97
2019-02-09T09:55:27.292Z,8.60
2019-02-09T09:57:55.902Z,5.57
2019-02-09T10:00:25.365Z,12.90
2019-02-09T10:02:53.887Z,4.40
2019-02-09T10:05:22.672Z,7.23
2019-02-09T10:07:52.998Z,10.80
2019-02-09T10:10:22.124Z,7.00
2019-02-09T10:12:50.990Z,11.60
2019-02-09T10:15:22.293Z,15.70
2019-02-09T10:17:55.463Z,15.90
2019-02-09T10:20:29.777Z,15.43
2019-02-09T10:23:03.760Z,14.93
2019-02-09T10:25:36.520Z,10.07
2019-02-09T10:28:06.588Z,10.07
2019-02-09T10:30:35.615Z,13.93
2019-02-09T10:33:04.459Z,9.83
2019-02-09T10:35:33.050Z,14.90
2019-02-09T10:38:01.798Z,12.40
2019-02-09T10:40:32.101Z,15.60
2019-02-09T10:43:01.540Z,14.23
2019-02-09T10:45:30.978Z,9.30
2019-02-09T10:48:00.141Z,13.63
2019-02-09T10:50:32.258Z,16.93
2019-02-09T10:53:00.875Z,13.83
2019-02-09T10:55:30.701Z,11.13
2019-02-09T10:57:59.544Z,9.13
2019-02-09T11:00:53.993Z,10.53
2019-02-09T11:03:22.948Z,12.83
2019-02-09T11:05:51.934Z,16.63
2019-02-09T11:08:20.672Z,13.73
2019-02-09T11:10:49.659Z,11.67
2019-02-09T11:13:18.326Z,16.97
2019-02-09T11:15:46.992Z,12.17
2019-02-09T11:18:15.706Z,10.57
2019-02-09T11:20:44.394Z,7.90
2019-02-09T11:23:14.815Z,10.87
2019-02-09T11:25:43.346Z,7.47
2019-02-09T11:28:13.414Z,8.87
2019-02-09T11:30:42.106Z,18.77
2019-02-09T11:33:11.007Z,11.37
2019-02-09T11:35:39.450Z,12.87
2019-02-09T11:38:08.073Z,14.03
2019-02-09T11:40:36.641Z,14.17
2019-02-09T11:43:06.903Z,11.60
2019-02-09T11:45:36.626Z,12.00
2019-02-09T11:48:06.501Z,7.80
2019-02-09T11:50:35.264Z,7.23
2019-02-09T11:53:04.990Z,10.17
2019-02-09T11:55:33.486Z,7.83
2019-02-09T11:58:02.071Z,9.57
2019-02-09T12:00:34.575Z,11.33
2019-02-09T12:03:13.995Z,11.67
2019-02-09T12:05:35.006Z,9.63
2019-02-09T12:08:05.162Z,10.87
2019-02-09T12:10:33.806Z,8.93
2019-02-09T12:13:02.417Z,8.20
2019-02-09T12:15:32.282Z,7.77
2019-02-09T12:18:01.395Z,8.07
2019-02-09T12:20:30.315Z,12.77
2019-02-09T12:22:59.194Z,10.33
2019-02-09T12:25:32.898Z,12.33
2019-02-09T12:28:01.808Z,6.07
2019-02-09T12:30:33.216Z,7.47
2019-02-09T12:33:03.590Z,10.97
2019-02-09T12:35:32.044Z,12.57
2019-02-09T12:38:00.924Z,6.37
2019-02-09T12:40:33.208Z,9.17
2019-02-09T12:43:01.968Z,5.47
2019-02-09T12:45:32.057Z,10.80
2019-02-09T12:48:00.633Z,10.73
2019-02-09T12:50:30.207Z,12.03
2019-02-09T12:52:59.020Z,10.23
2019-02-09T12:55:28.196Z,6.57
2019-02-09T12:57:56.786Z,7.33
2019-02-09T13:00:28.533Z,13.23
2019-02-09T13:02:58.399Z,12.50
2019-02-09T13:05:27.118Z,8.07
2019-02-09T13:07:55.703Z,8.77
2019-02-09T13:10:24.458Z,8.63
2019-02-09T13:12:53.023Z,6.23
2019-02-09T13:15:24.241Z,8.00
2019-02-09T13:17:55.054Z,7.67
2019-02-09T13:20:25.588Z,10.07
2019-02-09T13:22:54.454Z,12.67
2019-02-09T13:25:23.507Z,7.43
2019-02-09T13:27:52.543Z,4.60
2019-02-09T13:30:25.100Z,4.87
2019-02-09T13:32:54.068Z,7.53
2019-02-09T13:35:22.535Z,7.30
2019-02-09T13:37:54.033Z,6.43
2019-02-09T13:40:23.084Z,9.83
2019-02-09T13:42:52.090Z,7.50
2019-02-09T13:45:29.463Z,7.80
2019-02-09T13:47:58.253Z,9.40
2019-02-09T13:50:28.635Z,12.93
2019-02-09T13:52:57.383Z,9.43
2019-02-09T13:55:26.064Z,6.87
2019-02-09T13:57:54.674Z,6.93
2019-02-09T14:00:23.795Z,12.10
2019-02-09T14:02:53.216Z,17.80
2019-02-09T14:05:21.883Z,10.60
2019-02-09T14:07:50.618Z,9.80
2019-02-09T14:10:20.346Z,10.00
2019-02-09T14:12:49.368Z,8.30
2019-02-09T14:15:26.842Z,10.03
2019-02-09T14:17:58.152Z,9.70
2019-02-09T14:20:27.447Z,10.73
2019-02-09T14:22:56.273Z,7.60
2019-02-09T14:25:24.861Z,7.70
2019-02-09T14:27:56.848Z,12.77
2019-02-09T14:30:26.858Z,10.27
2019-02-09T14:32:55.786Z,7.87
2019-02-09T14:35:24.659Z,10.37
2019-02-09T14:37:54.228Z,14.30
2019-02-09T14:40:26.545Z,7.23
2019-02-09T14:42:55.246Z,10.53
2019-02-09T14:45:34.663Z,9.77
2019-02-09T14:48:05.339Z,9.60
2019-02-09T14:50:33.824Z,8.13
2019-02-09T14:53:02.424Z,6.40
2019-02-09T14:55:32.902Z,8.00
2019-02-09T14:58:01.500Z,9.83
2019-02-09T15:00:42.805Z,6.57
2019-02-09T15:03:12.366Z,4.03
2019-02-09T15:05:40.977Z,6.47
2019-02-09T15:08:09.629Z,7.17
2019-02-09T15:10:38.310Z,10.03
2019-02-09T15:13:09.003Z,11.93
2019-02-09T15:15:45.240Z,7.90
2019-02-09T15:18:13.756Z,9.03
2019-02-09T15:20:48.813Z,7.43
2019-02-09T15:23:17.434Z,10.60
2019-02-09T15:25:46.189Z,14.43
2019-02-09T15:28:14.898Z,12.53
2019-02-09T15:30:43.508Z,11.97
2019-02-09T15:33:12.146Z,10.77
2019-02-09T15:35:40.696Z,9.17
2019-02-09T15:38:09.289Z,8.60
2019-02-09T15:40:37.757Z,8.47
2019-02-09T15:43:06.592Z,8.97
2019-02-09T15:45:35.009Z,9.30
2019-02-09T15:48:04.621Z,9.27
2019-02-09T15:50:33.936Z,10.30
2019-02-09T15:53:02.688Z,8.97
2019-02-09T15:55:31.360Z,6.03
2019-02-09T15:57:59.810Z,12.37
2019-02-09T16:00:28.435Z,8.63
2019-02-09T16:02:57.206Z,12.97
2019-02-09T16:05:26.252Z,11.83
2019-02-09T16:07:55.247Z,9.77
2019-02-09T16:10:24.894Z,5.67
2019-02-09T16:12:53.439Z,8.67
2019-02-09T16:15:24.645Z,6.90
2019-02-09T16:17:53.194Z,11.87
2019-02-09T16:20:22.620Z,10.10
2019-02-09T16:22:51.231Z,10.83
2019-02-09T16:25:20.344Z,13.57
2019-02-09T16:27:48.919Z,10.30
2019-02-09T16:30:20.859Z,10.10
2019-02-09T16:32:49.501Z,11.07
2019-02-09T16:35:19.469Z,12.73
2019-02-09T16:37:49.014Z,11.97
2019-02-09T16:40:20.187Z,15.83
2019-02-09T16:42:48.955Z,6.77
2019-02-09T16:45:21.120Z,12.57
2019-02-09T16:47:49.600Z,7.87
2019-02-09T16:50:19.088Z,7.60
2019-02-09T16:52:47.580Z,8.87
2019-02-09T16:55:17.077Z,11.27
2019-02-09T16:57:45.707Z,9.77
2019-02-09T17:00:19.342Z,14.07
2019-02-09T17:02:48.273Z,16.23
2019-02-09T17:05:16.831Z,12.83
2019-02-09T17:07:45.522Z,11.33
2019-02-09T17:10:14.940Z,16.23
2019-02-09T17:12:43.631Z,8.73
2019-02-09T17:15:16.634Z,19.27
2019-02-09T17:17:45.524Z,16.80
2019-02-09T17:20:14.938Z,7.33
2019-02-09T17:22:43.620Z,14.30
2019-02-09T17:25:13.298Z,17.57
2019-02-09T17:27:41.854Z,18.93
2019-02-09T17:30:18.359Z,14.53
2019-02-09T17:32:47.210Z,13.70
2019-02-09T17:35:16.620Z,11.47
2019-02-09T17:37:45.246Z,13.73
2019-02-09T17:40:17.110Z,14.07
2019-02-09T17:42:53.014Z,13.37
2019-02-09T17:45:59.813Z,14.03
2019-02-09T17:48:28.622Z,16.50
2019-02-09T17:50:57.236Z,17.03
2019-02-09T17:53:25.789Z,12.10
2019-02-09T17:55:54.368Z,14.10
2019-02-09T17:58:22.917Z,17.93
2019-02-09T18:01:03.754Z,13.83
2019-02-09T18:03:32.327Z,14.57
2019-02-09T18:06:01.097Z,13.83
2019-02-09T18:08:29.686Z,16.10
2019-02-09T18:10:58.203Z,13.10
2019-02-09T18:13:26.878Z,11.70
2019-02-09T18:15:55.347Z,17.27
2019-02-09T18:18:23.783Z,14.40
2019-02-09T18:20:52.613Z,13.07
2019-02-09T18:23:21.117Z,9.33
2019-02-09T18:25:49.750Z,11.03
2019-02-09T18:28:18.298Z,19.47
2019-02-09T18:30:46.858Z,17.77
2019-02-09T18:33:15.189Z,16.60
2019-02-09T18:35:43.822Z,14.77
2019-02-09T18:38:12.260Z,18.70
2019-02-09T18:40:40.770Z,14.87
2019-02-09T18:43:09.813Z,11.27
2019-02-09T18:45:39.939Z,12.30
2019-02-09T18:48:08.776Z,12.93
2019-02-09T18:50:37.275Z,15.20
2019-02-09T18:53:05.836Z,11.37
2019-02-09T18:55:36.753Z,9.93
2019-02-09T18:58:05.562Z,10.90
2019-02-09T19:00:34.966Z,15.97
2019-02-09T19:03:05.598Z,15.00
2019-02-09T19:05:34.062Z,16.13
2019-02-09T19:08:03.517Z,14.43
2019-02-09T19:10:33.176Z,13.50
2019-02-09T19:13:01.670Z,14.03
2019-02-09T19:15:30.623Z,16.00
2019-02-09T19:18:00.331Z,10.63
2019-02-09T19:20:36.451Z,13.50
2019-02-09T19:23:05.795Z,16.23
2019-02-09T19:25:34.841Z,14.17
2019-02-09T19:28:04.196Z,10.80
2019-02-09T19:30:33.358Z,18.83
2019-02-09T19:33:02.349Z,13.37
2019-02-09T19:35:30.835Z,17.00
2019-02-09T19:37:59.463Z,13.07
2019-02-09T19:40:28.099Z,15.27
2019-02-09T19:42:56.815Z,14.10
2019-02-09T19:45:28.717Z,10.50
2019-02-09T19:47:57.382Z,12.80
2019-02-09T19:50:25.957Z,12.57
2019-02-09T19:52:54.815Z,8.10
2019-02-09T19:55:25.978Z,17.03
2019-02-09T19:57:54.611Z,12.90
2019-02-09T20:00:30.765Z,14.30
2019-02-09T20:02:59.788Z,6.93
2019-02-09T20:05:28.813Z,10.43
2019-02-09T20:07:57.854Z,16.17
2019-02-09T20:10:30.907Z,14.50
2019-02-09T20:13:01.055Z,18.00
2019-02-09T20:15:29.668Z,12.50
2019-02-09T20:17:58.158Z,16.60
2019-02-09T20:20:26.906Z,12.70
2019-02-09T20:22:55.668Z,12.53
2019-02-09T20:25:24.793Z,13.90
2019-02-09T20:27:53.366Z,11.20
2019-02-09T20:30:27.459Z,16.00
2019-02-09T20:32:56.800Z,7.50
2019-02-09T20:35:27.874Z,17.23
2019-02-09T20:37:56.876Z,14.53
2019-02-09T20:40:49.318Z,13.73
2019-02-09T20:43:19.409Z,9.17
2019-02-09T20:45:48.481Z,14.60
2019-02-09T20:48:17.481Z,16.60
2019-02-09T20:50:45.984Z,11.57
2019-02-09T20:53:14.473Z,15.13
2019-02-09T20:55:43.105Z,15.90
2019-02-09T20:58:14.094Z,11.40
2019-02-09T21:00:42.627Z,9.63
2019-02-09T21:03:11.071Z,14.87
2019-02-09T21:05:39.514Z,12.80
2019-02-09T21:08:08.300Z,9.37
2019-02-09T21:10:37.716Z,10.27
2019-02-09T21:13:06.649Z,8.57
2019-02-09T21:15:35.866Z,13.27
2019-02-09T21:18:05.727Z,15.27
2019-02-09T21:20:34.349Z,13.53
2019-02-09T21:23:03.332Z,9.90
2019-02-09T21:25:34.740Z,13.73
2019-02-09T21:28:03.546Z,14.43
2019-02-09T21:30:33.031Z,16.70
2019-02-09T21:33:01.432Z,10.50
2019-02-09T21:35:30.586Z,12.73
2019-02-09T21:37:59.291Z,15.30
2019-02-09T21:40:28.434Z,11.53
2019-02-09T21:42:57.420Z,13.90
2019-02-09T21:45:26.167Z,15.30
2019-02-09T21:47:55.422Z,14.37
2019-02-09T21:50:32.600Z,15.03
2019-02-09T21:53:01.665Z,14.77
2019-02-09T21:55:30.589Z,14.37
2019-02-09T21:57:59.274Z,20.53
2019-02-09T22:00:34.117Z,12.37
2019-02-09T22:03:03.606Z,14.17
2019-02-09T22:05:32.603Z,10.90
2019-02-09T22:08:01.359Z,13.00
2019-02-09T22:10:33.936Z,12.93
2019-02-09T22:13:00.442Z,14.50
2019-02-09T22:15:38.075Z,12.13
2019-02-09T22:18:00.315Z,14.07
2019-02-09T22:20:28.863Z,13.30
2019-02-09T22:22:57.587Z,14.03
2019-02-09T22:25:26.334Z,14.53
2019-02-09T22:27:55.149Z,12.50
2019-02-09T22:30:26.266Z,17.17
2019-02-09T22:32:56.530Z,9.83
2019-02-09T22:35:25.713Z,13.10
2019-02-09T22:37:56.479Z,17.10
2019-02-09T22:40:28.372Z,10.60
2019-02-09T22:42:56.965Z,14.53
2019-02-09T22:45:28.389Z,9.53
2019-02-09T22:47:57.391Z,11.27
2019-02-09T22:50:29.098Z,13.00
2019-02-09T22:52:58.077Z,13.43
2019-02-09T22:55:26.886Z,12.70
2019-02-09T22:57:55.922Z,16.30
2019-02-09T23:00:59.948Z,13.40
2019-02-09T23:04:04.089Z,20.10
2019-02-09T23:06:58.825Z,11.23
2019-02-09T23:09:30.125Z,15.03
2019-02-09T23:11:59.011Z,11.50
2019-02-09T23:14:27.951Z,10.37
2019-02-09T23:16:58.219Z,11.53
2019-02-09T23:19:27.084Z,21.43
2019-02-09T23:21:56.001Z,9.17
2019-02-09T23:24:24.705Z,14.27
2019-02-09T23:26:53.517Z,10.13
2019-02-09T23:29:22.482Z,12.53
2019-02-09T23:31:50.993Z,12.50
2019-02-09T23:34:19.530Z,15.83
2019-02-09T23:36:48.076Z,12.57
2019-02-09T23:39:16.702Z,14.67
2019-02-09T23:41:45.115Z,8.43
2019-02-09T23:44:13.667Z,11.00
2019-02-09T23:46:42.127Z,16.87
2019-02-09T23:49:10.692Z,12.37
2019-02-09T23:51:39.620Z,16.00
2019-02-09T23:54:08.169Z,16.93
2019-02-09T23:56:36.868Z,14.47
2019-02-09T23:59:05.436Z,17.40
